createdAt,value
2023-04-15T00:10:36.344Z,5.0
2023-04-15T00:16:58.703Z,4.367892976588629
2023-04-15T00:23:19.747Z,4.317725752508361
2023-04-15T00:29:54.253Z,3.197324414715719
2023-04-15T00:38:31.313Z,4.404682274247492
2023-04-15T00:55:01.117Z,4.869565217391305
2023-04-15T01:01:24.076Z,3.983277591973244
2023-04-15T01:17:29.846Z,5.003344481605351
2023-04-15T01:23:52.311Z,4.8996655518394645
2023-04-15T01:30:15.179Z,4.7725752508361206
2023-04-15T01:38:24.416Z,4.2675585284280935
2023-04-15T01:44:45.922Z,5.702341137123746
2023-04-15T01:54:11.859Z,7.264214046822742
2023-04-15T02:00:32.746Z,4.913043478260869
2023-04-15T02:06:54.889Z,3.849498327759197
2023-04-15T02:16:29.379Z,5.966555183946488
2023-04-15T02:22:52.061Z,5.585284280936455
2023-04-15T02:29:14.964Z,5.254180602006689
2023-04-15T02:35:35.043Z,3.5418060200668897
2023-04-15T02:41:57.509Z,4.1003344481605355
2023-04-15T02:48:21.323Z,4.2207357859531776
2023-04-15T02:54:48.521Z,4.096989966555184
2023-04-15T03:01:10.177Z,3.230769230769231
2023-04-15T03:08:58.332Z,3.117056856187291
2023-04-15T03:15:20.931Z,3.762541806020067
2023-04-15T03:21:42.003Z,5.237458193979933
2023-04-15T03:33:42.270Z,6.454849498327759
2023-04-15T03:40:03.818Z,5.34113712374582
2023-04-15T03:46:26.311Z,4.173913043478261
2023-04-15T03:52:51.405Z,5.053511705685619
2023-04-15T03:59:16.672Z,4.351170568561873
2023-04-15T04:05:39.182Z,4.150501672240803
2023-04-15T04:18:19.300Z,4.759197324414716
2023-04-15T04:24:40.241Z,5.1404682274247495
2023-04-15T04:40:50.385Z,7.545150501672241
2023-04-15T04:47:11.361Z,7.491638795986622
2023-04-15T04:53:32.074Z,8.82943143812709
2023-04-15T04:59:55.924Z,7.933110367892977
2023-04-15T05:12:50.037Z,9.809364548494983
2023-04-15T05:22:53.832Z,7.491638795986622
2023-04-15T05:44:00.617Z,7.7959866220735785
2023-04-15T05:53:20.551Z,9.177257525083611
2023-04-15T05:59:48.639Z,7.404682274247492
2023-04-15T06:13:10.896Z,7.816053511705686
2023-04-15T06:25:56.000Z,7.096989966555184
2023-04-15T06:36:45.706Z,6.595317725752508
2023-04-15T06:43:51.197Z,7.896321070234114
2023-04-15T06:50:53.113Z,10.474916387959865
2023-04-15T06:57:46.380Z,6.68561872909699
2023-04-15T07:07:07.065Z,5.551839464882943
2023-04-15T07:13:28.497Z,5.474916387959866
2023-04-15T07:19:50.288Z,6.167224080267559
2023-04-15T07:26:12.273Z,5.043478260869565
2023-04-15T07:37:40.581Z,5.086956521739131
2023-04-15T07:44:02.694Z,3.5250836120401337
2023-04-15T07:50:27.402Z,4.107023411371237
2023-04-15T07:56:51.265Z,3.1939799331103678
2023-04-15T08:03:13.628Z,3.769230769230769
2023-04-15T08:09:36.282Z,8.62541806020067
2023-04-15T08:21:41.407Z,4.006688963210703
2023-04-15T08:28:05.493Z,2.508361204013378
2023-04-15T08:34:28.440Z,1.0969899665551839
2023-04-15T08:40:52.403Z,1.2809364548494984
2023-04-15T08:47:15.558Z,2.2876254180602005
2023-04-15T08:53:38.340Z,2.0836120401337794
2023-04-15T09:00:04.824Z,2.0903010033444818
2023-04-15T09:06:31.480Z,1.7892976588628762
2023-04-15T09:17:52.040Z,1.4013377926421404
2023-04-15T09:26:03.149Z,2.809364548494983
2023-04-15T09:32:28.629Z,2.745819397993311
2023-04-15T09:47:10.885Z,3.0535117056856187
2023-04-15T10:00:29.175Z,2.270903010033445
2023-04-15T10:06:49.758Z,1.117056856187291
2023-04-15T10:13:10.117Z,1.9899665551839465
2023-04-15T10:19:31.624Z,2.3846153846153846
2023-04-15T10:25:58.667Z,3.2876254180602005
2023-04-15T10:32:19.630Z,2.0267558528428093
2023-04-15T10:38:40.856Z,2.6923076923076925
2023-04-15T10:53:23.084Z,4.250836120401337
2023-04-15T10:59:44.416Z,3.4949832775919734
2023-04-15T11:06:05.606Z,6.217391304347826
2023-04-15T11:20:04.803Z,8.62541806020067
2023-04-15T11:26:25.624Z,7.066889632107023
2023-04-15T11:32:47.125Z,7.551839464882943
2023-04-15T11:45:22.814Z,7.709030100334449
2023-04-15T11:51:43.809Z,8.602006688963211
2023-04-15T11:58:05.198Z,9.578595317725753
2023-04-15T12:04:26.322Z,10.137123745819398
2023-04-15T12:10:47.824Z,11.364548494983278
2023-04-15T12:17:09.478Z,15.193979933110368
2023-04-15T12:23:30.473Z,14.270903010033445
2023-04-15T12:35:07.331Z,21.337792642140467
2023-04-15T12:41:28.847Z,33.09364548494983
2023-04-15T12:47:50.430Z,23.45819397993311
2023-04-15T12:59:14.657Z,22.140468227424748
2023-04-15T13:10:04.312Z,21.474916387959865
2023-04-15T13:16:26.668Z,27.93979933110368
2023-04-15T13:22:48.775Z,31.046822742474916
2023-04-15T13:29:10.639Z,26.99665551839465
2023-04-15T13:40:42.612Z,22.297658862876254
2023-04-15T14:02:59.443Z,23.066889632107024
2023-04-15T14:09:21.352Z,25.816053511705686
2023-04-15T14:15:43.242Z,23.63545150501672
2023-04-15T14:24:29.762Z,23.03344481605351
2023-04-15T14:30:51.511Z,25.795986622073578
2023-04-15T14:39:47.648Z,22.08695652173913
2023-04-15T14:46:13.230Z,21.153846153846153
2023-04-15T14:52:40.288Z,21.347826086956523
2023-04-15T14:59:09.621Z,24.183946488294314
2023-04-15T15:12:14.905Z,20.598662207357858
2023-04-15T15:18:40.900Z,23.638795986622075
2023-04-15T15:29:53.638Z,21.401337792642142
2023-04-15T15:36:16.333Z,17.31438127090301
2023-04-15T15:42:38.752Z,18.34113712374582
2023-04-15T15:49:04.108Z,19.792642140468228
2023-04-15T15:55:27.896Z,16.725752508361204
2023-04-15T16:01:50.878Z,18.57190635451505
2023-04-15T16:08:13.499Z,18.7190635451505
2023-04-15T16:14:36.926Z,13.26086956521739
2023-04-15T16:21:03.628Z,13.250836120401338
2023-04-15T16:28:26.470Z,9.57190635451505
2023-04-15T16:38:09.113Z,7.214046822742475
2023-04-15T16:45:42.541Z,7.749163879598663
2023-04-15T16:58:00.946Z,7.608695652173913
2023-04-15T17:06:53.915Z,10.632107023411372
2023-04-15T17:14:00.979Z,11.618729096989966
2023-04-15T17:20:32.658Z,9.816053511705686
2023-04-15T17:27:02.640Z,9.949832775919733
2023-04-15T17:34:01.059Z,12.448160535117056
2023-04-15T17:40:28.965Z,13.866220735785953
2023-04-15T17:47:08.819Z,11.08695652173913
2023-04-15T18:02:03.099Z,12.321070234113712
2023-04-15T18:08:26.297Z,12.983277591973245
2023-04-15T18:14:55.079Z,12.377926421404682
2023-04-15T18:21:21.667Z,12.351170568561873
2023-04-15T18:29:01.969Z,12.40133779264214
2023-04-15T18:35:30.165Z,11.525083612040135
2023-04-15T18:45:51.553Z,12.923076923076923
2023-04-15T18:52:16.135Z,11.698996655518394
2023-04-15T18:59:10.248Z,12.297658862876254
2023-04-15T19:05:57.315Z,13.147157190635452
2023-04-15T19:12:21.690Z,12.394648829431437
2023-04-15T19:18:48.404Z,12.605351170568563
2023-04-15T19:25:12.375Z,13.645484949832776
2023-04-15T19:31:37.201Z,14.220735785953178
2023-04-15T19:45:03.357Z,10.715719063545151
2023-04-15T19:51:30.002Z,10.177257525083611
2023-04-15T19:59:46.191Z,11.525083612040135
2023-04-15T20:08:09.433Z,12.11371237458194
2023-04-15T20:15:19.484Z,13.25418060200669
2023-04-15T20:21:47.723Z,10.59866220735786
2023-04-15T20:28:19.791Z,12.826086956521738
2023-04-15T20:34:40.890Z,10.989966555183946
2023-04-15T20:43:44.890Z,12.551839464882944
2023-04-15T20:50:09.264Z,13.301003344481606
2023-04-15T20:56:33.860Z,13.217391304347826
2023-04-15T21:07:36.563Z,12.110367892976589
2023-04-15T21:14:01.263Z,12.117056856187292
2023-04-15T21:20:24.922Z,12.454849498327759
2023-04-15T21:26:46.461Z,13.270903010033445
2023-04-15T21:39:12.507Z,13.334448160535118
2023-04-15T21:45:35.370Z,15.214046822742475
2023-04-15T21:51:55.371Z,13.17056856187291
2023-04-15T21:58:15.370Z,12.17056856187291
2023-04-15T22:04:35.564Z,15.143812709030101
2023-04-15T22:15:41.654Z,13.525083612040135
2023-04-15T22:24:52.691Z,14.090301003344482
2023-04-15T22:31:11.873Z,14.702341137123746
2023-04-15T22:38:12.958Z,15.806020066889632
2023-04-15T22:46:28.073Z,11.137123745819398
2023-04-15T22:52:48.417Z,12.715719063545151
2023-04-15T23:01:25.531Z,13.006688963210703
2023-04-15T23:07:44.815Z,10.37123745819398
2023-04-15T23:14:04.658Z,13.892976588628763
2023-04-15T23:20:25.207Z,13.665551839464882
2023-04-15T23:28:51.899Z,14.120401337792643
2023-04-15T23:40:41.351Z,15.133779264214047
2023-04-15T23:47:03.760Z,16.59531772575251
2023-04-15T23:53:25.453Z,15.270903010033445
2023-04-15T23:59:49.359Z,14.090301003344482
